sensor_id;sensor_type;location;lat;lon;timestamp;pressure;altitude;pressure_sealevel;temperature;humidity
52469;BME280;38381;53.688;10.776;2022-07-29T00:00:31;101752.34;;;13.31;68.01
52469;BME280;38381;53.688;10.776;2022-07-29T00:05:32;101758.34;;;13.23;68.09
52469;BME280;38381;53.688;10.776;2022-07-29T00:10:32;101754.81;;;13.20;68.44
52469;BME280;38381;53.688;10.776;2022-07-29T00:15:33;101753.88;;;13.13;68.53
52469;BME280;38381;53.688;10.776;2022-07-29T00:20:33;101747.72;;;13.06;69.50
52469;BME280;38381;53.688;10.776;2022-07-29T00:25:33;101753.69;;;12.98;69.87
52469;BME280;38381;53.688;10.776;2022-07-29T00:30:33;101749.34;;;12.97;69.81
52469;BME280;38381;53.688;10.776;2022-07-29T00:35:34;101758.00;;;12.94;69.65
52469;BME280;38381;53.688;10.776;2022-07-29T00:40:47;101746.59;;;12.87;69.96
52469;BME280;38381;53.688;10.776;2022-07-29T00:45:47;101745.63;;;12.78;70.11
52469;BME280;38381;53.688;10.776;2022-07-29T00:50:49;101749.03;;;12.75;70.55
52469;BME280;38381;53.688;10.776;2022-07-29T00:55:49;101755.06;;;12.71;70.72
52469;BME280;38381;53.688;10.776;2022-07-29T01:00:50;101749.78;;;12.63;70.48
52469;BME280;38381;53.688;10.776;2022-07-29T01:05:50;101751.47;;;12.60;70.37
52469;BME280;38381;53.688;10.776;2022-07-29T01:10:51;101747.00;;;12.51;71.10
52469;BME280;38381;53.688;10.776;2022-07-29T01:15:57;101735.66;;;12.47;71.12
52469;BME280;38381;53.688;10.776;2022-07-29T01:21:38;101734.66;;;12.38;72.08
52469;BME280;38381;53.688;10.776;2022-07-29T01:31:51;101723.22;;;12.26;72.34
52469;BME280;38381;53.688;10.776;2022-07-29T01:37:06;101717.97;;;12.23;72.97
52469;BME280;38381;53.688;10.776;2022-07-29T01:42:10;101714.44;;;12.18;73.46
52469;BME280;38381;53.688;10.776;2022-07-29T01:47:16;101713.59;;;12.21;72.61
52469;BME280;38381;53.688;10.776;2022-07-29T01:52:34;101704.84;;;12.16;72.71
52469;BME280;38381;53.688;10.776;2022-07-29T01:57:37;101709.97;;;12.11;73.93
52469;BME280;38381;53.688;10.776;2022-07-29T02:02:42;101704.75;;;12.08;73.64
52469;BME280;38381;53.688;10.776;2022-07-29T02:07:44;101701.25;;;12.06;73.73
52469;BME280;38381;53.688;10.776;2022-07-29T02:12:48;101689.97;;;12.04;74.16
52469;BME280;38381;53.688;10.776;2022-07-29T02:17:54;101692.53;;;12.02;74.41
52469;BME280;38381;53.688;10.776;2022-07-29T02:22:56;101690.78;;;12.03;74.57
52469;BME280;38381;53.688;10.776;2022-07-29T02:27:57;101686.47;;;12.02;74.52
52469;BME280;38381;53.688;10.776;2022-07-29T02:32:59;101675.16;;;12.00;73.97
52469;BME280;38381;53.688;10.776;2022-07-29T02:38:01;101675.13;;;11.98;75.20
52469;BME280;38381;53.688;10.776;2022-07-29T02:43:22;101681.16;;;11.97;75.17
52469;BME280;38381;53.688;10.776;2022-07-29T02:48:28;101675.16;;;12.00;75.04
52469;BME280;38381;53.688;10.776;2022-07-29T02:53:35;101674.28;;;12.01;75.43
52469;BME280;38381;53.688;10.776;2022-07-29T02:58:57;101661.28;;;12.01;75.30
52469;BME280;38381;53.688;10.776;2022-07-29T03:04:01;101668.25;;;12.02;75.50
52469;BME280;38381;53.688;10.776;2022-07-29T03:09:03;101659.56;;;12.01;75.69
52469;BME280;38381;53.688;10.776;2022-07-29T03:14:04;101663.88;;;11.99;75.70
52469;BME280;38381;53.688;10.776;2022-07-29T03:19:05;101656.06;;;11.98;75.16
52469;BME280;38381;53.688;10.776;2022-07-29T03:24:06;101662.94;;;11.94;75.57
52469;BME280;38381;53.688;10.776;2022-07-29T03:29:06;101662.91;;;11.93;75.84
52469;BME280;38381;53.688;10.776;2022-07-29T03:34:07;101669.81;;;11.91;76.22
52469;BME280;38381;53.688;10.776;2022-07-29T03:39:08;101674.13;;;11.90;76.21
52469;BME280;38381;53.688;10.776;2022-07-29T03:44:09;101664.59;;;11.91;76.12
52469;BME280;38381;53.688;10.776;2022-07-29T03:49:11;101662.91;;;11.93;76.68
52469;BME280;38381;53.688;10.776;2022-07-29T03:54:15;101661.16;;;11.92;76.47
52469;BME280;38381;53.688;10.776;2022-07-29T03:59:16;101658.66;;;11.99;76.69
52469;BME280;38381;53.688;10.776;2022-07-29T04:04:17;101657.06;;;12.06;76.02
52469;BME280;38381;53.688;10.776;2022-07-29T04:09:19;101651.06;;;12.13;75.85
52469;BME280;38381;53.688;10.776;2022-07-29T04:14:19;101651.13;;;12.18;75.58
52469;BME280;38381;53.688;10.776;2022-07-29T04:19:20;101654.88;;;12.37;74.90
52469;BME280;38381;53.688;10.776;2022-07-29T04:24:20;101650.66;;;12.45;74.91
52469;BME280;38381;53.688;10.776;2022-07-29T04:29:20;101653.34;;;12.54;74.60
52469;BME280;38381;53.688;10.776;2022-07-29T04:34:21;101650.00;;;12.61;74.28
52469;BME280;38381;53.688;10.776;2022-07-29T04:39:21;101649.25;;;12.73;74.09
52469;BME280;38381;53.688;10.776;2022-07-29T04:44:21;101639.72;;;12.74;74.14
52469;BME280;38381;53.688;10.776;2022-07-29T04:49:22;101638.09;;;12.82;74.22
52469;BME280;38381;53.688;10.776;2022-07-29T04:54:22;101641.59;;;12.87;74.83
52469;BME280;38381;53.688;10.776;2022-07-29T04:59:22;101642.59;;;13.00;74.02
52469;BME280;38381;53.688;10.776;2022-07-29T05:04:23;101644.44;;;13.07;74.03
52469;BME280;38381;53.688;10.776;2022-07-29T05:09:23;101641.09;;;13.19;74.03
52469;BME280;38381;53.688;10.776;2022-07-29T05:14:23;101644.59;;;13.24;73.50
52469;BME280;38381;53.688;10.776;2022-07-29T05:19:23;101641.25;;;13.34;74.08
52469;BME280;38381;53.688;10.776;2022-07-29T05:24:24;101647.50;;;13.55;73.86
52469;BME280;38381;53.688;10.776;2022-07-29T05:29:24;101637.25;;;13.75;72.65
52469;BME280;38381;53.688;10.776;2022-07-29T05:34:24;101635.63;;;13.94;72.72
52469;BME280;38381;53.688;10.776;2022-07-29T05:39:25;101627.94;;;14.18;72.38
52469;BME280;38381;53.688;10.776;2022-07-29T05:44:25;101630.63;;;14.35;71.24
52469;BME280;38381;53.688;10.776;2022-07-29T05:49:25;101635.13;;;14.58;70.86
52469;BME280;38381;53.688;10.776;2022-07-29T05:54:26;101637.84;;;14.87;70.66
52469;BME280;38381;53.688;10.776;2022-07-29T05:59:26;101635.28;;;15.10;69.19
52469;BME280;38381;53.688;10.776;2022-07-29T06:04:26;101640.50;;;15.25;69.00
52469;BME280;38381;53.688;10.776;2022-07-29T06:09:27;101644.91;;;15.46;68.50
52469;BME280;38381;53.688;10.776;2022-07-29T06:14:27;101646.66;;;15.63;67.59
52469;BME280;38381;53.688;10.776;2022-07-29T06:19:28;101639.69;;;15.89;67.35
52469;BME280;38381;53.688;10.776;2022-07-29T06:24:28;101636.13;;;16.14;66.92
52469;BME280;38381;53.688;10.776;2022-07-29T06:29:29;101638.69;;;16.34;65.95
52469;BME280;38381;53.688;10.776;2022-07-29T06:34:29;101644.78;;;16.45;66.59
52469;BME280;38381;53.688;10.776;2022-07-29T06:39:30;101647.31;;;16.62;66.71
52469;BME280;38381;53.688;10.776;2022-07-29T06:44:30;101645.44;;;16.95;65.15
52469;BME280;38381;53.688;10.776;2022-07-29T06:49:31;101641.81;;;17.14;64.41
52469;BME280;38381;53.688;10.776;2022-07-29T06:54:31;101645.19;;;17.30;64.55
52469;BME280;38381;53.688;10.776;2022-07-29T06:59:31;101635.44;;;17.50;64.24
52469;BME280;38381;53.688;10.776;2022-07-29T07:04:32;101637.63;;;17.98;63.29
52469;BME280;38381;53.688;10.776;2022-07-29T07:09:33;101625.53;;;18.62;61.65
52469;BME280;38381;53.688;10.776;2022-07-29T07:14:33;101627.53;;;19.07;59.62
52469;BME280;38381;53.688;10.776;2022-07-29T07:19:33;101618.03;;;19.00;58.55
52469;BME280;38381;53.688;10.776;2022-07-29T07:24:34;101613.31;;;19.22;58.92
52469;BME280;38381;53.688;10.776;2022-07-29T07:29:34;101618.09;;;19.51;57.37
52469;BME280;38381;53.688;10.776;2022-07-29T07:34:35;101614.66;;;19.46;57.70
52469;BME280;38381;53.688;10.776;2022-07-29T07:39:37;101608.63;;;19.39;57.82
52469;BME280;38381;53.688;10.776;2022-07-29T07:44:39;101605.91;;;19.44;58.96
52469;BME280;38381;53.688;10.776;2022-07-29T07:49:39;101609.28;;;19.54;58.79
52469;BME280;38381;53.688;10.776;2022-07-29T07:54:39;101608.84;;;19.80;57.60
52469;BME280;38381;53.688;10.776;2022-07-29T07:59:40;101608.47;;;20.00;57.92
52469;BME280;38381;53.688;10.776;2022-07-29T08:04:42;101606.25;;;20.23;56.43
52469;BME280;38381;53.688;10.776;2022-07-29T08:09:42;101598.16;;;20.33;56.19
52469;BME280;38381;53.688;10.776;2022-07-29T08:14:43;101595.88;;;20.56;55.88
52469;BME280;38381;53.688;10.776;2022-07-29T08:19:43;101599.22;;;20.67;54.38
52469;BME280;38381;53.688;10.776;2022-07-29T08:24:43;101592.84;;;20.76;54.21
52469;BME280;38381;53.688;10.776;2022-07-29T08:29:44;101599.84;;;20.77;52.90
52469;BME280;38381;53.688;10.776;2022-07-29T08:34:44;101586.09;;;20.64;52.60
52469;BME280;38381;53.688;10.776;2022-07-29T08:39:46;101595.34;;;20.82;52.18
52469;BME280;38381;53.688;10.776;2022-07-29T08:44:47;101593.25;;;20.97;52.49
52469;BME280;38381;53.688;10.776;2022-07-29T08:49:47;101587.28;;;21.26;50.98
52469;BME280;38381;53.688;10.776;2022-07-29T08:54:48;101577.59;;;21.62;50.76
52469;BME280;38381;53.688;10.776;2022-07-29T08:59:50;101572.69;;;21.80;50.40
52469;BME280;38381;53.688;10.776;2022-07-29T09:04:52;101578.06;;;22.08;50.60
52469;BME280;38381;53.688;10.776;2022-07-29T09:09:52;101562.97;;;22.44;49.33
52469;BME280;38381;53.688;10.776;2022-07-29T09:14:53;101569.72;;;22.53;48.48
52469;BME280;38381;53.688;10.776;2022-07-29T09:20:08;101563.06;;;22.69;47.92
52469;BME280;38381;53.688;10.776;2022-07-29T09:25:11;101561.38;;;22.95;47.84
52469;BME280;38381;53.688;10.776;2022-07-29T09:30:14;101564.56;;;23.06;46.64
52469;BME280;38381;53.688;10.776;2022-07-29T09:35:20;101557.63;;;23.29;45.99
52469;BME280;38381;53.688;10.776;2022-07-29T09:40:27;101554.94;;;23.56;46.22
52469;BME280;38381;53.688;10.776;2022-07-29T09:45:30;101551.34;;;23.83;44.47
52469;BME280;38381;53.688;10.776;2022-07-29T09:50:41;101549.50;;;23.85;43.05
52469;BME280;38381;53.688;10.776;2022-07-29T09:55:48;101538.09;;;24.07;43.65
52469;BME280;38381;53.688;10.776;2022-07-29T10:00:50;101539.00;;;24.29;42.20
52469;BME280;38381;53.688;10.776;2022-07-29T10:06:08;101545.44;;;24.46;40.34
52469;BME280;38381;53.688;10.776;2022-07-29T10:11:17;101541.00;;;24.46;40.39
52469;BME280;38381;53.688;10.776;2022-07-29T10:16:17;101547.03;;;24.52;39.21
52469;BME280;38381;53.688;10.776;2022-07-29T10:21:17;101539.75;;;24.57;39.37
52469;BME280;38381;53.688;10.776;2022-07-29T10:26:19;101534.75;;;24.93;39.77
52469;BME280;38381;53.688;10.776;2022-07-29T10:31:26;101526.59;;;25.18;39.65
52469;BME280;38381;53.688;10.776;2022-07-29T10:42:08;101511.44;;;25.42;38.06
52469;BME280;38381;53.688;10.776;2022-07-29T10:47:23;101519.84;;;25.73;37.07
52469;BME280;38381;53.688;10.776;2022-07-29T10:52:24;101503.00;;;25.53;36.94
52469;BME280;38381;53.688;10.776;2022-07-29T10:57:28;101511.84;;;25.54;37.46
52469;BME280;38381;53.688;10.776;2022-07-29T11:07:34;101502.72;;;25.59;37.48
52469;BME280;38381;53.688;10.776;2022-07-29T11:22:53;101499.75;;;26.43;36.18
52469;BME280;38381;53.688;10.776;2022-07-29T11:27:54;101503.16;;;26.08;35.57
52469;BME280;38381;53.688;10.776;2022-07-29T11:33:26;101496.63;;;26.16;34.93
52469;BME280;38381;53.688;10.776;2022-07-29T11:38:27;101488.88;;;26.11;34.89
52469;BME280;38381;53.688;10.776;2022-07-29T11:43:48;101491.75;;;26.25;35.17
52469;BME280;38381;53.688;10.776;2022-07-29T11:48:49;101493.41;;;26.28;34.01
52469;BME280;38381;53.688;10.776;2022-07-29T11:53:49;101492.91;;;26.20;33.56
52469;BME280;38381;53.688;10.776;2022-07-29T11:58:50;101483.47;;;26.13;33.60
52469;BME280;38381;53.688;10.776;2022-07-29T12:04:02;101486.63;;;26.02;34.28
52469;BME280;38381;53.688;10.776;2022-07-29T12:09:07;101481.25;;;26.03;33.75
52469;BME280;38381;53.688;10.776;2022-07-29T12:14:07;101481.63;;;25.96;33.56
52469;BME280;38381;53.688;10.776;2022-07-29T12:19:08;101475.22;;;26.00;37.22
52469;BME280;38381;53.688;10.776;2022-07-29T12:24:08;101475.56;;;25.92;39.81
52469;BME280;38381;53.688;10.776;2022-07-29T12:29:15;101468.53;;;26.10;38.30
52469;BME280;38381;53.688;10.776;2022-07-29T12:34:16;101466.09;;;26.05;40.67
52469;BME280;38381;53.688;10.776;2022-07-29T12:39:17;101463.84;;;25.77;42.41
52469;BME280;38381;53.688;10.776;2022-07-29T12:44:17;101467.56;;;25.73;43.58
52469;BME280;38381;53.688;10.776;2022-07-29T12:49:21;101461.06;;;25.80;44.01
52469;BME280;38381;53.688;10.776;2022-07-29T12:54:22;101464.91;;;25.73;43.79
52469;BME280;38381;53.688;10.776;2022-07-29T12:59:23;101466.44;;;25.79;44.28
52469;BME280;38381;53.688;10.776;2022-07-29T13:04:30;101465.41;;;25.62;44.50
52469;BME280;38381;53.688;10.776;2022-07-29T13:09:42;101458.59;;;25.76;44.97
52469;BME280;38381;53.688;10.776;2022-07-29T13:14:45;101454.78;;;25.81;46.01
52469;BME280;38381;53.688;10.776;2022-07-29T13:19:48;101459.53;;;25.75;46.54
52469;BME280;38381;53.688;10.776;2022-07-29T13:24:57;101450.25;;;25.83;46.81
52469;BME280;38381;53.688;10.776;2022-07-29T13:29:59;101455.59;;;26.02;47.38
52469;BME280;38381;53.688;10.776;2022-07-29T13:35:03;101445.69;;;26.06;47.60
52469;BME280;38381;53.688;10.776;2022-07-29T13:40:04;101442.81;;;25.92;47.93
52469;BME280;38381;53.688;10.776;2022-07-29T13:45:05;101445.00;;;25.82;48.58
52469;BME280;38381;53.688;10.776;2022-07-29T13:50:07;101443.59;;;25.75;48.13
52469;BME280;38381;53.688;10.776;2022-07-29T13:55:09;101438.91;;;25.61;48.49
52469;BME280;38381;53.688;10.776;2022-07-29T14:00:10;101435.03;;;25.68;48.60
52469;BME280;38381;53.688;10.776;2022-07-29T14:05:11;101430.56;;;25.49;49.14
52469;BME280;38381;53.688;10.776;2022-07-29T14:10:11;101426.09;;;25.31;48.80
52469;BME280;38381;53.688;10.776;2022-07-29T14:15:11;101432.84;;;25.38;49.02
52469;BME280;38381;53.688;10.776;2022-07-29T14:20:12;101423.16;;;25.37;49.68
52469;BME280;38381;53.688;10.776;2022-07-29T14:25:12;101426.28;;;25.26;49.25
52469;BME280;38381;53.688;10.776;2022-07-29T14:30:13;101419.72;;;25.35;50.11
52469;BME280;38381;53.688;10.776;2022-07-29T14:35:13;101415.44;;;25.52;49.72
52469;BME280;38381;53.688;10.776;2022-07-29T14:40:13;101414.19;;;25.40;50.27
52469;BME280;38381;53.688;10.776;2022-07-29T14:45:14;101420.50;;;25.17;50.78
52469;BME280;38381;53.688;10.776;2022-07-29T14:50:14;101411.66;;;25.16;50.09
52469;BME280;38381;53.688;10.776;2022-07-29T14:55:14;101399.94;;;25.22;50.48
52469;BME280;38381;53.688;10.776;2022-07-29T15:00:15;101404.06;;;25.29;50.11
52469;BME280;38381;53.688;10.776;2022-07-29T15:05:16;101409.00;;;25.16;50.76
52469;BME280;38381;53.688;10.776;2022-07-29T15:10:17;101405.56;;;25.14;50.47
52469;BME280;38381;53.688;10.776;2022-07-29T15:15:17;101401.53;;;25.05;49.55
52469;BME280;38381;53.688;10.776;2022-07-29T15:20:17;101401.94;;;24.96;50.32
52469;BME280;38381;53.688;10.776;2022-07-29T15:25:18;101401.69;;;25.02;51.00
52469;BME280;38381;53.688;10.776;2022-07-29T15:30:18;101396.38;;;25.02;51.10
52469;BME280;38381;53.688;10.776;2022-07-29T15:35:19;101397.31;;;25.20;51.09
52469;BME280;38381;53.688;10.776;2022-07-29T15:40:19;101383.69;;;24.88;49.81
52469;BME280;38381;53.688;10.776;2022-07-29T15:45:20;101388.41;;;24.82;50.48
52469;BME280;38381;53.688;10.776;2022-07-29T15:50:20;101376.31;;;24.75;51.27
52469;BME280;38381;53.688;10.776;2022-07-29T15:55:21;101379.38;;;24.65;51.28
52469;BME280;38381;53.688;10.776;2022-07-29T16:00:21;101367.19;;;24.82;50.57
52469;BME280;38381;53.688;10.776;2022-07-29T16:05:23;101372.06;;;24.91;50.64
52469;BME280;38381;53.688;10.776;2022-07-29T16:10:23;101363.78;;;24.99;50.34
52469;BME280;38381;53.688;10.776;2022-07-29T16:15:24;101367.75;;;25.09;50.59
52469;BME280;38381;53.688;10.776;2022-07-29T16:20:24;101375.84;;;25.06;49.91
52469;BME280;38381;53.688;10.776;2022-07-29T16:25:24;101370.28;;;24.92;51.21
52469;BME280;38381;53.688;10.776;2022-07-29T16:30:25;101364.88;;;25.14;50.57
52469;BME280;38381;53.688;10.776;2022-07-29T16:35:25;101365.50;;;25.00;51.94
52469;BME280;38381;53.688;10.776;2022-07-29T16:40:25;101358.13;;;25.06;52.39
52469;BME280;38381;53.688;10.776;2022-07-29T16:45:26;101357.19;;;25.07;52.54
52469;BME280;38381;53.688;10.776;2022-07-29T16:50:29;101345.56;;;25.10;52.30
52469;BME280;38381;53.688;10.776;2022-07-29T16:55:30;101350.34;;;25.22;52.51
52469;BME280;38381;53.688;10.776;2022-07-29T17:00:31;101347.63;;;25.24;52.53
52469;BME280;38381;53.688;10.776;2022-07-29T17:05:31;101346.78;;;25.23;52.28
52469;BME280;38381;53.688;10.776;2022-07-29T17:10:32;101354.84;;;24.81;53.83
52469;BME280;38381;53.688;10.776;2022-07-29T17:15:32;101344.78;;;24.46;56.77
52469;BME280;38381;53.688;10.776;2022-07-29T17:20:33;101346.44;;;24.28;58.66
52469;BME280;38381;53.688;10.776;2022-07-29T17:25:35;101350.91;;;24.06;59.96
52469;BME280;38381;53.688;10.776;2022-07-29T17:30:35;101346.66;;;24.02;60.38
52469;BME280;38381;53.688;10.776;2022-07-29T17:35:36;101348.13;;;23.63;61.60
52469;BME280;38381;53.688;10.776;2022-07-29T17:40:55;101348.50;;;23.76;61.51
52469;BME280;38381;53.688;10.776;2022-07-29T17:45:55;101352.09;;;23.52;62.48
52469;BME280;38381;53.688;10.776;2022-07-29T17:50:55;101348.81;;;23.45;62.80
52469;BME280;38381;53.688;10.776;2022-07-29T17:55:56;101357.97;;;23.13;63.92
52469;BME280;38381;53.688;10.776;2022-07-29T18:00:57;101361.63;;;23.08;64.38
52469;BME280;38381;53.688;10.776;2022-07-29T18:05:57;101357.91;;;23.14;64.20
52469;BME280;38381;53.688;10.776;2022-07-29T18:10:58;101361.00;;;23.00;64.69
52469;BME280;38381;53.688;10.776;2022-07-29T18:15:58;101361.41;;;22.89;65.17
52469;BME280;38381;53.688;10.776;2022-07-29T18:20:59;101354.09;;;22.96;65.01
52469;BME280;38381;53.688;10.776;2022-07-29T18:25:59;101356.22;;;22.86;65.02
52469;BME280;38381;53.688;10.776;2022-07-29T18:31:00;101354.13;;;22.71;65.38
52469;BME280;38381;53.688;10.776;2022-07-29T18:36:01;101350.84;;;22.64;65.24
52469;BME280;38381;53.688;10.776;2022-07-29T18:41:02;101355.41;;;22.59;65.24
52469;BME280;38381;53.688;10.776;2022-07-29T18:46:03;101350.56;;;22.45;65.95
52469;BME280;38381;53.688;10.776;2022-07-29T18:51:04;101350.03;;;22.36;66.33
52469;BME280;38381;53.688;10.776;2022-07-29T18:56:05;101355.81;;;22.19;67.15
52469;BME280;38381;53.688;10.776;2022-07-29T19:01:05;101361.47;;;22.08;67.45
52469;BME280;38381;53.688;10.776;2022-07-29T19:06:05;101361.06;;;21.92;68.03
52469;BME280;38381;53.688;10.776;2022-07-29T19:11:06;101364.84;;;21.85;67.62
52469;BME280;38381;53.688;10.776;2022-07-29T19:16:06;101366.91;;;21.74;67.85
52469;BME280;38381;53.688;10.776;2022-07-29T19:21:10;101382.94;;;21.67;67.84
52469;BME280;38381;53.688;10.776;2022-07-29T19:26:10;101380.03;;;21.47;68.03
52469;BME280;38381;53.688;10.776;2022-07-29T19:31:11;101382.00;;;21.39;67.70
52469;BME280;38381;53.688;10.776;2022-07-29T19:36:11;101388.28;;;21.35;67.33
52469;BME280;38381;53.688;10.776;2022-07-29T19:41:11;101390.50;;;21.19;67.13
52469;BME280;38381;53.688;10.776;2022-07-29T19:46:12;101389.94;;;21.06;67.58
52469;BME280;38381;53.688;10.776;2022-07-29T19:51:12;101396.44;;;20.94;67.81
52469;BME280;38381;53.688;10.776;2022-07-29T19:56:13;101391.31;;;20.88;67.61
52469;BME280;38381;53.688;10.776;2022-07-29T20:01:13;101398.63;;;20.77;68.31
52469;BME280;38381;53.688;10.776;2022-07-29T20:06:13;101397.97;;;20.68;68.49
52469;BME280;38381;53.688;10.776;2022-07-29T20:11:14;101395.56;;;20.58;68.10
52469;BME280;38381;53.688;10.776;2022-07-29T20:16:14;101393.91;;;20.55;67.33
52469;BME280;38381;53.688;10.776;2022-07-29T20:21:14;101394.06;;;20.47;66.98
52469;BME280;38381;53.688;10.776;2022-07-29T20:26:16;101389.63;;;20.49;66.71
52469;BME280;38381;53.688;10.776;2022-07-29T20:31:16;101378.28;;;20.46;65.93
52469;BME280;38381;53.688;10.776;2022-07-29T20:36:17;101391.78;;;20.32;66.21
52469;BME280;38381;53.688;10.776;2022-07-29T20:41:18;101387.47;;;20.29;65.92
52469;BME280;38381;53.688;10.776;2022-07-29T20:46:18;101387.47;;;20.29;65.69
52469;BME280;38381;53.688;10.776;2022-07-29T20:51:19;101388.59;;;20.19;65.62
52469;BME280;38381;53.688;10.776;2022-07-29T20:56:19;101391.13;;;20.24;65.34
52469;BME280;38381;53.688;10.776;2022-07-29T21:01:20;101387.78;;;20.16;65.50
52469;BME280;38381;53.688;10.776;2022-07-29T21:06:20;101387.91;;;20.11;65.32
52469;BME280;38381;53.688;10.776;2022-07-29T21:11:20;101390.66;;;20.06;65.38
52469;BME280;38381;53.688;10.776;2022-07-29T21:16:21;101392.47;;;20.03;65.21
52469;BME280;38381;53.688;10.776;2022-07-29T21:21:24;101400.53;;;19.97;65.22
52469;BME280;38381;53.688;10.776;2022-07-29T21:26:25;101394.44;;;19.93;65.04
52469;BME280;38381;53.688;10.776;2022-07-29T21:31:26;101394.59;;;19.87;65.08
52469;BME280;38381;53.688;10.776;2022-07-29T21:36:27;101394.66;;;19.85;64.58
52469;BME280;38381;53.688;10.776;2022-07-29T21:41:27;101391.22;;;19.82;65.30
52469;BME280;38381;53.688;10.776;2022-07-29T21:46:27;101387.03;;;19.70;65.99
52469;BME280;38381;53.688;10.776;2022-07-29T21:51:28;101387.03;;;19.70;65.42
52469;BME280;38381;53.688;10.776;2022-07-29T21:56:28;101392.44;;;19.64;65.95
52469;BME280;38381;53.688;10.776;2022-07-29T22:01:29;101393.47;;;19.57;66.05
52469;BME280;38381;53.688;10.776;2022-07-29T22:06:29;101401.50;;;19.50;66.07
52469;BME280;38381;53.688;10.776;2022-07-29T22:11:31;101400.81;;;19.39;66.66
52469;BME280;38381;53.688;10.776;2022-07-29T22:16:32;101394.84;;;19.31;67.29
52469;BME280;38381;53.688;10.776;2022-07-29T22:21:32;101391.47;;;19.26;67.58
52469;BME280;38381;53.688;10.776;2022-07-29T22:26:32;101401.22;;;19.19;67.60
52469;BME280;38381;53.688;10.776;2022-07-29T22:31:33;101403.06;;;19.14;67.98
52469;BME280;38381;53.688;10.776;2022-07-29T22:36:33;101403.19;;;19.08;67.66
52469;BME280;38381;53.688;10.776;2022-07-29T22:41:33;101399.66;;;19.09;68.07
52469;BME280;38381;53.688;10.776;2022-07-29T22:46:34;101399.63;;;19.10;67.60
52469;BME280;38381;53.688;10.776;2022-07-29T22:51:34;101392.78;;;19.03;68.07
52469;BME280;38381;53.688;10.776;2022-07-29T22:56:35;101384.03;;;19.01;67.99
52469;BME280;38381;53.688;10.776;2022-07-29T23:01:35;101379.75;;;18.97;68.45
52469;BME280;38381;53.688;10.776;2022-07-29T23:06:36;101384.09;;;18.98;68.17
52469;BME280;38381;53.688;10.776;2022-07-29T23:11:36;101385.09;;;18.91;68.22
52469;BME280;38381;53.688;10.776;2022-07-29T23:16:36;101376.28;;;18.95;68.29
52469;BME280;38381;53.688;10.776;2022-07-29T23:21:37;101383.38;;;18.88;68.13
52469;BME280;38381;53.688;10.776;2022-07-29T23:26:37;101379.06;;;18.84;68.25
52469;BME280;38381;53.688;10.776;2022-07-29T23:31:37;101376.59;;;18.74;68.47
52469;BME280;38381;53.688;10.776;2022-07-29T23:36:37;101372.31;;;18.68;68.93
52469;BME280;38381;53.688;10.776;2022-07-29T23:41:38;101374.19;;;18.63;69.03
52469;BME280;38381;53.688;10.776;2022-07-29T23:46:38;101372.50;;;18.59;69.50
52469;BME280;38381;53.688;10.776;2022-07-29T23:51:38;101371.63;;;18.58;69.03
52469;BME280;38381;53.688;10.776;2022-07-29T23:56:39;101371.84;;;18.46;69.04
